sensor_id;sensor_type;location;lat;lon;timestamp;P1;durP1;ratioP1;P2;durP2;ratioP2
62903;SDS011;49000;50.698;13.322;2024-02-16T00:02:15;4.07;;;2.57;;
62903;SDS011;49000;50.698;13.322;2024-02-16T00:04:41;1.97;;;1.70;;
62903;SDS011;49000;50.698;13.322;2024-02-16T00:07:06;4.50;;;2.40;;
62903;SDS011;49000;50.698;13.322;2024-02-16T00:09:32;4.43;;;1.90;;
62903;SDS011;49000;50.698;13.322;2024-02-16T00:11:58;3.87;;;1.90;;
62903;SDS011;49000;50.698;13.322;2024-02-16T00:14:23;4.57;;;2.60;;
62903;SDS011;49000;50.698;13.322;2024-02-16T00:16:49;4.57;;;2.73;;
62903;SDS011;49000;50.698;13.322;2024-02-16T00:19:14;5.03;;;2.40;;
62903;SDS011;49000;50.698;13.322;2024-02-16T00:21:40;4.50;;;2.40;;
62903;SDS011;49000;50.698;13.322;2024-02-16T00:24:07;4.03;;;2.40;;
62903;SDS011;49000;50.698;13.322;2024-02-16T00:26:33;6.03;;;2.87;;
62903;SDS011;49000;50.698;13.322;2024-02-16T00:28:58;4.23;;;2.40;;
62903;SDS011;49000;50.698;13.322;2024-02-16T00:31:24;5.30;;;2.70;;
62903;SDS011;49000;50.698;13.322;2024-02-16T00:33:49;4.67;;;3.10;;
62903;SDS011;49000;50.698;13.322;2024-02-16T00:36:14;5.60;;;3.67;;
62903;SDS011;49000;50.698;13.322;2024-02-16T00:38:40;6.60;;;3.30;;
62903;SDS011;49000;50.698;13.322;2024-02-16T00:41:05;6.97;;;3.83;;
62903;SDS011;49000;50.698;13.322;2024-02-16T00:43:32;6.43;;;3.40;;
62903;SDS011;49000;50.698;13.322;2024-02-16T00:45:57;8.50;;;3.63;;
62903;SDS011;49000;50.698;13.322;2024-02-16T00:48:23;8.93;;;3.43;;
62903;SDS011;49000;50.698;13.322;2024-02-16T00:50:49;4.57;;;3.20;;
62903;SDS011;49000;50.698;13.322;2024-02-16T00:53:14;6.23;;;3.40;;
62903;SDS011;49000;50.698;13.322;2024-02-16T00:55:40;5.00;;;3.27;;
62903;SDS011;49000;50.698;13.322;2024-02-16T00:58:06;7.33;;;4.40;;
62903;SDS011;49000;50.698;13.322;2024-02-16T01:00:32;6.40;;;3.90;;
62903;SDS011;49000;50.698;13.322;2024-02-16T01:02:57;6.30;;;3.80;;
62903;SDS011;49000;50.698;13.322;2024-02-16T01:05:23;6.23;;;4.30;;
62903;SDS011;49000;50.698;13.322;2024-02-16T01:07:48;7.73;;;4.53;;
62903;SDS011;49000;50.698;13.322;2024-02-16T01:10:14;9.20;;;4.23;;
62903;SDS011;49000;50.698;13.322;2024-02-16T01:12:40;6.67;;;3.70;;
62903;SDS011;49000;50.698;13.322;2024-02-16T01:15:05;8.70;;;4.70;;
62903;SDS011;49000;50.698;13.322;2024-02-16T01:17:31;8.57;;;4.43;;
62903;SDS011;49000;50.698;13.322;2024-02-16T01:19:59;8.43;;;4.43;;
62903;SDS011;49000;50.698;13.322;2024-02-16T01:22:25;7.97;;;4.37;;
62903;SDS011;49000;50.698;13.322;2024-02-16T01:24:51;6.30;;;3.97;;
62903;SDS011;49000;50.698;13.322;2024-02-16T01:27:17;7.87;;;4.20;;
62903;SDS011;49000;50.698;13.322;2024-02-16T01:29:42;6.63;;;4.17;;
62903;SDS011;49000;50.698;13.322;2024-02-16T01:32:08;8.90;;;4.57;;
62903;SDS011;49000;50.698;13.322;2024-02-16T01:34:33;9.33;;;5.07;;
62903;SDS011;49000;50.698;13.322;2024-02-16T01:36:59;9.47;;;4.20;;
62903;SDS011;49000;50.698;13.322;2024-02-16T01:39:24;6.97;;;4.80;;
62903;SDS011;49000;50.698;13.322;2024-02-16T01:41:50;9.43;;;5.00;;
62903;SDS011;49000;50.698;13.322;2024-02-16T01:44:15;7.00;;;4.40;;
62903;SDS011;49000;50.698;13.322;2024-02-16T01:46:41;7.23;;;4.47;;
62903;SDS011;49000;50.698;13.322;2024-02-16T01:49:07;7.63;;;4.37;;
62903;SDS011;49000;50.698;13.322;2024-02-16T01:51:34;5.90;;;4.23;;
62903;SDS011;49000;50.698;13.322;2024-02-16T01:54:00;5.53;;;4.00;;
62903;SDS011;49000;50.698;13.322;2024-02-16T01:56:26;7.80;;;4.30;;
62903;SDS011;49000;50.698;13.322;2024-02-16T01:58:53;7.87;;;4.77;;
62903;SDS011;49000;50.698;13.322;2024-02-16T02:01:18;8.53;;;5.10;;
62903;SDS011;49000;50.698;13.322;2024-02-16T02:03:44;11.30;;;6.00;;
62903;SDS011;49000;50.698;13.322;2024-02-16T02:06:09;7.40;;;5.17;;
62903;SDS011;49000;50.698;13.322;2024-02-16T02:08:35;7.43;;;5.27;;
62903;SDS011;49000;50.698;13.322;2024-02-16T02:11:00;8.53;;;4.47;;
62903;SDS011;49000;50.698;13.322;2024-02-16T02:13:27;8.73;;;5.50;;
62903;SDS011;49000;50.698;13.322;2024-02-16T02:15:53;7.83;;;4.93;;
62903;SDS011;49000;50.698;13.322;2024-02-16T02:18:19;9.30;;;5.27;;
62903;SDS011;49000;50.698;13.322;2024-02-16T02:20:45;11.13;;;6.33;;
62903;SDS011;49000;50.698;13.322;2024-02-16T02:23:10;12.50;;;6.53;;
62903;SDS011;49000;50.698;13.322;2024-02-16T02:25:36;9.53;;;6.00;;
62903;SDS011;49000;50.698;13.322;2024-02-16T02:28:01;9.43;;;5.67;;
62903;SDS011;49000;50.698;13.322;2024-02-16T02:30:28;10.50;;;6.27;;
62903;SDS011;49000;50.698;13.322;2024-02-16T02:32:53;14.97;;;7.43;;
62903;SDS011;49000;50.698;13.322;2024-02-16T02:35:19;12.97;;;6.60;;
62903;SDS011;49000;50.698;13.322;2024-02-16T02:37:44;10.63;;;6.13;;
62903;SDS011;49000;50.698;13.322;2024-02-16T02:40:10;11.23;;;6.70;;
62903;SDS011;49000;50.698;13.322;2024-02-16T02:42:35;9.93;;;5.87;;
62903;SDS011;49000;50.698;13.322;2024-02-16T02:45:01;10.07;;;6.13;;
62903;SDS011;49000;50.698;13.322;2024-02-16T02:47:27;12.00;;;6.57;;
62903;SDS011;49000;50.698;13.322;2024-02-16T02:49:53;10.23;;;6.50;;
62903;SDS011;49000;50.698;13.322;2024-02-16T02:52:20;12.93;;;7.60;;
62903;SDS011;49000;50.698;13.322;2024-02-16T02:54:46;13.37;;;6.97;;
62903;SDS011;49000;50.698;13.322;2024-02-16T02:57:12;10.23;;;6.90;;
62903;SDS011;49000;50.698;13.322;2024-02-16T02:59:37;8.70;;;6.57;;
62903;SDS011;49000;50.698;13.322;2024-02-16T03:02:03;15.03;;;7.87;;
62903;SDS011;49000;50.698;13.322;2024-02-16T03:04:29;13.17;;;7.10;;
62903;SDS011;49000;50.698;13.322;2024-02-16T03:06:54;11.13;;;6.80;;
62903;SDS011;49000;50.698;13.322;2024-02-16T03:09:20;12.73;;;7.90;;
62903;SDS011;49000;50.698;13.322;2024-02-16T03:11:45;14.23;;;8.37;;
62903;SDS011;49000;50.698;13.322;2024-02-16T03:14:11;11.80;;;7.23;;
62903;SDS011;49000;50.698;13.322;2024-02-16T03:16:37;12.63;;;7.20;;
62903;SDS011;49000;50.698;13.322;2024-02-16T03:19:03;13.40;;;7.53;;
62903;SDS011;49000;50.698;13.322;2024-02-16T03:21:31;13.87;;;7.90;;
62903;SDS011;49000;50.698;13.322;2024-02-16T03:23:57;13.03;;;6.73;;
62903;SDS011;49000;50.698;13.322;2024-02-16T03:26:23;15.50;;;8.13;;
62903;SDS011;49000;50.698;13.322;2024-02-16T03:28:48;13.50;;;7.93;;
62903;SDS011;49000;50.698;13.322;2024-02-16T03:31:23;13.43;;;7.73;;
62903;SDS011;49000;50.698;13.322;2024-02-16T03:33:49;17.40;;;8.57;;
62903;SDS011;49000;50.698;13.322;2024-02-16T03:36:19;15.90;;;8.37;;
62903;SDS011;49000;50.698;13.322;2024-02-16T03:38:45;12.10;;;7.17;;
62903;SDS011;49000;50.698;13.322;2024-02-16T03:41:15;16.73;;;9.27;;
62903;SDS011;49000;50.698;13.322;2024-02-16T03:43:43;13.80;;;8.50;;
62903;SDS011;49000;50.698;13.322;2024-02-16T03:46:08;13.10;;;7.33;;
62903;SDS011;49000;50.698;13.322;2024-02-16T03:48:34;16.13;;;8.57;;
62903;SDS011;49000;50.698;13.322;2024-02-16T03:51:00;12.87;;;8.43;;
62903;SDS011;49000;50.698;13.322;2024-02-16T03:53:27;14.73;;;8.00;;
62903;SDS011;49000;50.698;13.322;2024-02-16T03:55:53;13.33;;;8.40;;
62903;SDS011;49000;50.698;13.322;2024-02-16T03:58:19;13.50;;;8.13;;
62903;SDS011;49000;50.698;13.322;2024-02-16T04:00:44;13.30;;;8.50;;
62903;SDS011;49000;50.698;13.322;2024-02-16T04:03:09;14.17;;;8.53;;
62903;SDS011;49000;50.698;13.322;2024-02-16T04:05:35;12.17;;;7.80;;
62903;SDS011;49000;50.698;13.322;2024-02-16T04:08:03;14.13;;;8.87;;
62903;SDS011;49000;50.698;13.322;2024-02-16T04:10:31;14.37;;;8.30;;
62903;SDS011;49000;50.698;13.322;2024-02-16T04:12:56;12.43;;;8.10;;
62903;SDS011;49000;50.698;13.322;2024-02-16T04:15:22;14.07;;;7.63;;
62903;SDS011;49000;50.698;13.322;2024-02-16T04:17:48;14.97;;;9.03;;
62903;SDS011;49000;50.698;13.322;2024-02-16T04:20:15;13.13;;;9.07;;
62903;SDS011;49000;50.698;13.322;2024-02-16T04:22:41;12.60;;;7.80;;
62903;SDS011;49000;50.698;13.322;2024-02-16T04:25:06;14.27;;;8.03;;
62903;SDS011;49000;50.698;13.322;2024-02-16T04:27:33;13.93;;;8.37;;
62903;SDS011;49000;50.698;13.322;2024-02-16T04:29:59;15.30;;;8.27;;
62903;SDS011;49000;50.698;13.322;2024-02-16T04:32:25;12.27;;;7.63;;
62903;SDS011;49000;50.698;13.322;2024-02-16T04:34:51;13.33;;;8.30;;
62903;SDS011;49000;50.698;13.322;2024-02-16T04:37:17;14.37;;;8.70;;
62903;SDS011;49000;50.698;13.322;2024-02-16T04:39:43;12.53;;;7.90;;
62903;SDS011;49000;50.698;13.322;2024-02-16T04:42:09;14.27;;;8.37;;
62903;SDS011;49000;50.698;13.322;2024-02-16T04:44:38;11.57;;;7.57;;
62903;SDS011;49000;50.698;13.322;2024-02-16T04:47:04;13.93;;;8.43;;
62903;SDS011;49000;50.698;13.322;2024-02-16T04:49:30;13.80;;;8.13;;
62903;SDS011;49000;50.698;13.322;2024-02-16T04:51:55;14.33;;;8.60;;
62903;SDS011;49000;50.698;13.322;2024-02-16T04:54:21;15.67;;;8.73;;
62903;SDS011;49000;50.698;13.322;2024-02-16T04:56:47;12.53;;;8.03;;
62903;SDS011;49000;50.698;13.322;2024-02-16T04:59:14;14.00;;;7.60;;
62903;SDS011;49000;50.698;13.322;2024-02-16T05:01:39;12.33;;;7.30;;
62903;SDS011;49000;50.698;13.322;2024-02-16T05:04:05;11.77;;;7.83;;
62903;SDS011;49000;50.698;13.322;2024-02-16T05:06:31;11.97;;;7.43;;
62903;SDS011;49000;50.698;13.322;2024-02-16T05:08:57;11.97;;;7.60;;
62903;SDS011;49000;50.698;13.322;2024-02-16T05:11:23;13.83;;;8.07;;
62903;SDS011;49000;50.698;13.322;2024-02-16T05:13:49;13.40;;;7.87;;
62903;SDS011;49000;50.698;13.322;2024-02-16T05:16:15;11.97;;;7.60;;
62903;SDS011;49000;50.698;13.322;2024-02-16T05:18:41;14.57;;;8.40;;
62903;SDS011;49000;50.698;13.322;2024-02-16T05:21:07;14.70;;;8.50;;
62903;SDS011;49000;50.698;13.322;2024-02-16T05:23:33;12.00;;;7.37;;
62903;SDS011;49000;50.698;13.322;2024-02-16T05:25:58;12.47;;;7.80;;
62903;SDS011;49000;50.698;13.322;2024-02-16T05:28:24;13.20;;;8.20;;
62903;SDS011;49000;50.698;13.322;2024-02-16T05:30:49;11.17;;;7.83;;
62903;SDS011;49000;50.698;13.322;2024-02-16T05:33:15;12.13;;;7.27;;
62903;SDS011;49000;50.698;13.322;2024-02-16T05:35:40;13.93;;;7.27;;
62903;SDS011;49000;50.698;13.322;2024-02-16T05:38:06;10.80;;;7.27;;
62903;SDS011;49000;50.698;13.322;2024-02-16T05:40:35;10.30;;;6.63;;
62903;SDS011;49000;50.698;13.322;2024-02-16T05:43:18;9.57;;;6.70;;
62903;SDS011;49000;50.698;13.322;2024-02-16T05:45:46;12.10;;;6.87;;
62903;SDS011;49000;50.698;13.322;2024-02-16T05:48:12;10.70;;;7.60;;
62903;SDS011;49000;50.698;13.322;2024-02-16T05:50:37;9.53;;;6.53;;
62903;SDS011;49000;50.698;13.322;2024-02-16T05:53:03;10.87;;;6.90;;
62903;SDS011;49000;50.698;13.322;2024-02-16T05:55:28;9.40;;;6.63;;
62903;SDS011;49000;50.698;13.322;2024-02-16T05:57:54;10.43;;;6.70;;
62903;SDS011;49000;50.698;13.322;2024-02-16T06:00:20;9.70;;;6.03;;
62903;SDS011;49000;50.698;13.322;2024-02-16T06:02:46;9.83;;;6.10;;
62903;SDS011;49000;50.698;13.322;2024-02-16T06:05:12;10.53;;;6.53;;
62903;SDS011;49000;50.698;13.322;2024-02-16T06:07:38;10.57;;;6.23;;
62903;SDS011;49000;50.698;13.322;2024-02-16T06:10:03;15.27;;;8.00;;
62903;SDS011;49000;50.698;13.322;2024-02-16T06:12:32;14.80;;;8.10;;
62903;SDS011;49000;50.698;13.322;2024-02-16T06:14:58;12.43;;;7.57;;
62903;SDS011;49000;50.698;13.322;2024-02-16T06:17:24;10.63;;;6.23;;
62903;SDS011;49000;50.698;13.322;2024-02-16T06:19:49;12.30;;;7.80;;
62903;SDS011;49000;50.698;13.322;2024-02-16T06:22:15;13.67;;;8.13;;
62903;SDS011;49000;50.698;13.322;2024-02-16T06:24:41;14.30;;;7.80;;
62903;SDS011;49000;50.698;13.322;2024-02-16T06:27:06;15.77;;;8.00;;
62903;SDS011;49000;50.698;13.322;2024-02-16T06:29:35;13.40;;;8.20;;
62903;SDS011;49000;50.698;13.322;2024-02-16T06:32:01;13.87;;;7.80;;
62903;SDS011;49000;50.698;13.322;2024-02-16T06:34:30;14.87;;;9.47;;
62903;SDS011;49000;50.698;13.322;2024-02-16T06:36:55;11.90;;;7.50;;
62903;SDS011;49000;50.698;13.322;2024-02-16T06:39:21;14.60;;;7.73;;
62903;SDS011;49000;50.698;13.322;2024-02-16T06:41:47;11.73;;;7.23;;
62903;SDS011;49000;50.698;13.322;2024-02-16T06:44:14;13.27;;;7.30;;
62903;SDS011;49000;50.698;13.322;2024-02-16T06:46:40;12.60;;;7.03;;
62903;SDS011;49000;50.698;13.322;2024-02-16T06:49:11;14.07;;;8.10;;
62903;SDS011;49000;50.698;13.322;2024-02-16T06:51:37;16.67;;;8.43;;
62903;SDS011;49000;50.698;13.322;2024-02-16T06:54:02;14.60;;;7.80;;
62903;SDS011;49000;50.698;13.322;2024-02-16T06:56:29;15.67;;;7.73;;
62903;SDS011;49000;50.698;13.322;2024-02-16T06:58:55;11.83;;;6.93;;
62903;SDS011;49000;50.698;13.322;2024-02-16T07:01:21;12.87;;;6.90;;
62903;SDS011;49000;50.698;13.322;2024-02-16T07:03:46;12.53;;;7.03;;
62903;SDS011;49000;50.698;13.322;2024-02-16T07:06:12;10.57;;;6.17;;
62903;SDS011;49000;50.698;13.322;2024-02-16T07:08:42;10.10;;;6.60;;
62903;SDS011;49000;50.698;13.322;2024-02-16T07:11:09;11.27;;;6.30;;
62903;SDS011;49000;50.698;13.322;2024-02-16T07:13:38;12.30;;;6.53;;
62903;SDS011;49000;50.698;13.322;2024-02-16T07:16:07;9.20;;;5.90;;
62903;SDS011;49000;50.698;13.322;2024-02-16T07:18:33;12.87;;;7.27;;
62903;SDS011;49000;50.698;13.322;2024-02-16T07:20:59;11.47;;;5.83;;
62903;SDS011;49000;50.698;13.322;2024-02-16T07:23:25;10.27;;;5.77;;
62903;SDS011;49000;50.698;13.322;2024-02-16T07:25:51;10.57;;;6.47;;
62903;SDS011;49000;50.698;13.322;2024-02-16T07:28:20;10.53;;;6.00;;
62903;SDS011;49000;50.698;13.322;2024-02-16T07:30:45;10.50;;;6.60;;
62903;SDS011;49000;50.698;13.322;2024-02-16T07:33:11;12.30;;;7.10;;
62903;SDS011;49000;50.698;13.322;2024-02-16T07:35:36;12.53;;;6.47;;
62903;SDS011;49000;50.698;13.322;2024-02-16T07:38:03;11.50;;;6.90;;
62903;SDS011;49000;50.698;13.322;2024-02-16T07:40:28;11.47;;;6.90;;
62903;SDS011;49000;50.698;13.322;2024-02-16T07:42:54;11.90;;;6.83;;
62903;SDS011;49000;50.698;13.322;2024-02-16T07:45:20;12.67;;;6.87;;
62903;SDS011;49000;50.698;13.322;2024-02-16T07:47:45;12.40;;;6.90;;
62903;SDS011;49000;50.698;13.322;2024-02-16T07:50:11;49.70;;;24.33;;
62903;SDS011;49000;50.698;13.322;2024-02-16T07:52:38;15.80;;;8.83;;
62903;SDS011;49000;50.698;13.322;2024-02-16T07:55:04;43.50;;;20.10;;
62903;SDS011;49000;50.698;13.322;2024-02-16T07:57:34;31.00;;;13.90;;
62903;SDS011;49000;50.698;13.322;2024-02-16T08:00:00;22.90;;;10.93;;
62903;SDS011;49000;50.698;13.322;2024-02-16T08:02:25;33.53;;;15.97;;
62903;SDS011;49000;50.698;13.322;2024-02-16T08:04:51;65.43;;;27.07;;
62903;SDS011;49000;50.698;13.322;2024-02-16T08:07:16;46.27;;;20.93;;
62903;SDS011;49000;50.698;13.322;2024-02-16T08:09:48;58.90;;;27.10;;
62903;SDS011;49000;50.698;13.322;2024-02-16T08:12:14;24.73;;;11.23;;
62903;SDS011;49000;50.698;13.322;2024-02-16T08:14:40;17.73;;;10.40;;
62903;SDS011;49000;50.698;13.322;2024-02-16T08:17:06;51.87;;;25.70;;
62903;SDS011;49000;50.698;13.322;2024-02-16T08:19:33;35.07;;;19.23;;
62903;SDS011;49000;50.698;13.322;2024-02-16T08:21:59;42.07;;;24.23;;
62903;SDS011;49000;50.698;13.322;2024-02-16T08:24:31;19.40;;;11.47;;
62903;SDS011;49000;50.698;13.322;2024-02-16T08:26:58;13.30;;;6.90;;
62903;SDS011;49000;50.698;13.322;2024-02-16T08:29:23;10.27;;;6.43;;
62903;SDS011;49000;50.698;13.322;2024-02-16T08:31:50;9.07;;;5.87;;
62903;SDS011;49000;50.698;13.322;2024-02-16T08:34:16;10.40;;;6.83;;
62903;SDS011;49000;50.698;13.322;2024-02-16T08:36:45;9.10;;;5.27;;
62903;SDS011;49000;50.698;13.322;2024-02-16T08:39:12;10.33;;;6.27;;
62903;SDS011;49000;50.698;13.322;2024-02-16T08:41:38;8.43;;;5.37;;
62903;SDS011;49000;50.698;13.322;2024-02-16T08:44:04;10.50;;;6.23;;
62903;SDS011;49000;50.698;13.322;2024-02-16T08:46:29;10.93;;;6.20;;
62903;SDS011;49000;50.698;13.322;2024-02-16T08:48:55;10.73;;;6.47;;
62903;SDS011;49000;50.698;13.322;2024-02-16T08:51:21;11.47;;;6.53;;
62903;SDS011;49000;50.698;13.322;2024-02-16T08:53:46;11.63;;;7.43;;
62903;SDS011;49000;50.698;13.322;2024-02-16T08:56:12;12.43;;;6.97;;
62903;SDS011;49000;50.698;13.322;2024-02-16T08:58:37;10.53;;;5.93;;
62903;SDS011;49000;50.698;13.322;2024-02-16T09:01:04;9.87;;;6.30;;
62903;SDS011;49000;50.698;13.322;2024-02-16T09:03:29;13.27;;;6.97;;
62903;SDS011;49000;50.698;13.322;2024-02-16T09:06:01;11.90;;;7.40;;
62903;SDS011;49000;50.698;13.322;2024-02-16T09:08:27;12.33;;;7.13;;
62903;SDS011;49000;50.698;13.322;2024-02-16T09:10:55;11.53;;;7.23;;
62903;SDS011;49000;50.698;13.322;2024-02-16T09:13:21;13.27;;;7.43;;
62903;SDS011;49000;50.698;13.322;2024-02-16T09:15:46;14.53;;;8.50;;
62903;SDS011;49000;50.698;13.322;2024-02-16T09:18:12;12.97;;;8.03;;
62903;SDS011;49000;50.698;13.322;2024-02-16T09:20:39;14.27;;;8.40;;
62903;SDS011;49000;50.698;13.322;2024-02-16T09:23:04;14.27;;;8.63;;
62903;SDS011;49000;50.698;13.322;2024-02-16T09:25:30;12.53;;;6.73;;
62903;SDS011;49000;50.698;13.322;2024-02-16T09:27:55;11.40;;;6.60;;
62903;SDS011;49000;50.698;13.322;2024-02-16T09:30:21;11.77;;;7.47;;
62903;SDS011;49000;50.698;13.322;2024-02-16T09:32:46;10.80;;;7.47;;
62903;SDS011;49000;50.698;13.322;2024-02-16T09:35:12;10.77;;;7.03;;
62903;SDS011;49000;50.698;13.322;2024-02-16T09:37:38;8.50;;;5.43;;
62903;SDS011;49000;50.698;13.322;2024-02-16T09:40:04;9.43;;;5.47;;
62903;SDS011;49000;50.698;13.322;2024-02-16T09:42:31;8.90;;;6.00;;
62903;SDS011;49000;50.698;13.322;2024-02-16T09:44:59;9.33;;;5.87;;
62903;SDS011;49000;50.698;13.322;2024-02-16T09:47:25;10.63;;;6.17;;
62903;SDS011;49000;50.698;13.322;2024-02-16T09:49:53;7.67;;;5.43;;
62903;SDS011;49000;50.698;13.322;2024-02-16T09:52:19;9.70;;;6.40;;
62903;SDS011;49000;50.698;13.322;2024-02-16T09:54:44;9.73;;;5.97;;
62903;SDS011;49000;50.698;13.322;2024-02-16T09:57:10;9.13;;;5.93;;
62903;SDS011;49000;50.698;13.322;2024-02-16T09:59:36;9.60;;;6.23;;
62903;SDS011;49000;50.698;13.322;2024-02-16T10:02:02;7.60;;;5.40;;
62903;SDS011;49000;50.698;13.322;2024-02-16T10:04:28;9.37;;;6.30;;
62903;SDS011;49000;50.698;13.322;2024-02-16T10:06:54;10.03;;;5.63;;
62903;SDS011;49000;50.698;13.322;2024-02-16T10:09:23;8.20;;;5.80;;
62903;SDS011;49000;50.698;13.322;2024-02-16T10:11:49;9.20;;;6.47;;
62903;SDS011;49000;50.698;13.322;2024-02-16T10:14:15;8.47;;;6.33;;
62903;SDS011;49000;50.698;13.322;2024-02-16T10:16:41;10.23;;;7.13;;
62903;SDS011;49000;50.698;13.322;2024-02-16T10:19:07;9.27;;;6.50;;
62903;SDS011;49000;50.698;13.322;2024-02-16T10:21:35;10.17;;;6.77;;
62903;SDS011;49000;50.698;13.322;2024-02-16T10:26:39;10.93;;;7.27;;
62903;SDS011;49000;50.698;13.322;2024-02-16T10:29:07;10.67;;;7.30;;
62903;SDS011;49000;50.698;13.322;2024-02-16T10:31:36;10.83;;;7.83;;
62903;SDS011;49000;50.698;13.322;2024-02-16T10:34:03;10.03;;;7.07;;
62903;SDS011;49000;50.698;13.322;2024-02-16T10:36:34;10.97;;;7.20;;
62903;SDS011;49000;50.698;13.322;2024-02-16T10:39:02;8.23;;;6.67;;
62903;SDS011;49000;50.698;13.322;2024-02-16T10:41:30;9.23;;;6.70;;
62903;SDS011;49000;50.698;13.322;2024-02-16T10:43:59;9.80;;;7.43;;
62903;SDS011;49000;50.698;13.322;2024-02-16T10:46:27;9.50;;;7.20;;
62903;SDS011;49000;50.698;13.322;2024-02-16T10:48:52;8.83;;;6.30;;
62903;SDS011;49000;50.698;13.322;2024-02-16T10:51:20;8.70;;;6.57;;
62903;SDS011;49000;50.698;13.322;2024-02-16T10:54:07;9.83;;;6.27;;
62903;SDS011;49000;50.698;13.322;2024-02-16T10:56:37;8.97;;;5.93;;
62903;SDS011;49000;50.698;13.322;2024-02-16T10:59:05;8.27;;;5.90;;
62903;SDS011;49000;50.698;13.322;2024-02-16T11:01:43;9.03;;;6.20;;
62903;SDS011;49000;50.698;13.322;2024-02-16T11:04:16;10.77;;;6.43;;
62903;SDS011;49000;50.698;13.322;2024-02-16T11:06:52;8.53;;;6.40;;
62903;SDS011;49000;50.698;13.322;2024-02-16T11:09:23;7.73;;;5.90;;
62903;SDS011;49000;50.698;13.322;2024-02-16T11:11:58;9.70;;;6.30;;
62903;SDS011;49000;50.698;13.322;2024-02-16T11:14:33;9.33;;;6.10;;
62903;SDS011;49000;50.698;13.322;2024-02-16T11:17:01;9.80;;;6.63;;
62903;SDS011;49000;50.698;13.322;2024-02-16T11:19:29;7.67;;;6.03;;
62903;SDS011;49000;50.698;13.322;2024-02-16T11:21:58;9.20;;;6.63;;
62903;SDS011;49000;50.698;13.322;2024-02-16T11:24:32;8.37;;;6.77;;
62903;SDS011;49000;50.698;13.322;2024-02-16T11:26:58;10.10;;;6.67;;
62903;SDS011;49000;50.698;13.322;2024-02-16T11:29:26;10.77;;;7.07;;
62903;SDS011;49000;50.698;13.322;2024-02-16T11:31:55;9.40;;;6.67;;
62903;SDS011;49000;50.698;13.322;2024-02-16T11:34:22;9.77;;;7.00;;
62903;SDS011;49000;50.698;13.322;2024-02-16T11:36:48;10.57;;;6.97;;
62903;SDS011;49000;50.698;13.322;2024-02-16T11:39:14;9.97;;;7.33;;
62903;SDS011;49000;50.698;13.322;2024-02-16T11:41:42;9.93;;;7.50;;
62903;SDS011;49000;50.698;13.322;2024-02-16T11:44:08;8.70;;;6.90;;
62903;SDS011;49000;50.698;13.322;2024-02-16T11:46:33;9.53;;;7.33;;
62903;SDS011;49000;50.698;13.322;2024-02-16T11:49:06;9.47;;;6.57;;
62903;SDS011;49000;50.698;13.322;2024-02-16T11:51:32;9.97;;;7.20;;
62903;SDS011;49000;50.698;13.322;2024-02-16T11:53:58;9.00;;;7.23;;
62903;SDS011;49000;50.698;13.322;2024-02-16T11:56:24;9.90;;;7.57;;
62903;SDS011;49000;50.698;13.322;2024-02-16T11:58:50;10.23;;;7.43;;
62903;SDS011;49000;50.698;13.322;2024-02-16T12:01:16;10.47;;;7.93;;
62903;SDS011;49000;50.698;13.322;2024-02-16T12:03:42;11.03;;;8.53;;
62903;SDS011;49000;50.698;13.322;2024-02-16T12:06:08;10.63;;;7.90;;
62903;SDS011;49000;50.698;13.322;2024-02-16T12:08:33;11.53;;;8.63;;
62903;SDS011;49000;50.698;13.322;2024-02-16T12:10:59;10.77;;;8.07;;
62903;SDS011;49000;50.698;13.322;2024-02-16T12:13:27;9.50;;;7.40;;
62903;SDS011;49000;50.698;13.322;2024-02-16T12:15:52;9.60;;;6.80;;
62903;SDS011;49000;50.698;13.322;2024-02-16T12:18:21;9.37;;;6.40;;
62903;SDS011;49000;50.698;13.322;2024-02-16T12:21:01;9.93;;;7.17;;
62903;SDS011;49000;50.698;13.322;2024-02-16T12:23:29;8.87;;;6.43;;
62903;SDS011;49000;50.698;13.322;2024-02-16T12:25:55;9.10;;;6.53;;
62903;SDS011;49000;50.698;13.322;2024-02-16T12:28:24;9.00;;;6.77;;
62903;SDS011;49000;50.698;13.322;2024-02-16T12:30:56;9.00;;;6.40;;
62903;SDS011;49000;50.698;13.322;2024-02-16T12:33:22;7.93;;;5.67;;
62903;SDS011;49000;50.698;13.322;2024-02-16T12:35:47;6.53;;;5.23;;
62903;SDS011;49000;50.698;13.322;2024-02-16T12:38:13;7.43;;;5.73;;
62903;SDS011;49000;50.698;13.322;2024-02-16T12:40:42;6.83;;;5.57;;
62903;SDS011;49000;50.698;13.322;2024-02-16T12:43:08;9.27;;;5.47;;
62903;SDS011;49000;50.698;13.322;2024-02-16T12:45:36;5.90;;;4.87;;
62903;SDS011;49000;50.698;13.322;2024-02-16T12:48:02;5.93;;;4.50;;
62903;SDS011;49000;50.698;13.322;2024-02-16T12:50:28;7.07;;;5.33;;
62903;SDS011;49000;50.698;13.322;2024-02-16T12:52:54;6.60;;;5.30;;
62903;SDS011;49000;50.698;13.322;2024-02-16T12:55:20;7.43;;;5.40;;
62903;SDS011;49000;50.698;13.322;2024-02-16T12:57:45;7.50;;;5.87;;
62903;SDS011;49000;50.698;13.322;2024-02-16T13:00:11;6.83;;;5.30;;
62903;SDS011;49000;50.698;13.322;2024-02-16T13:02:37;5.97;;;4.90;;
62903;SDS011;49000;50.698;13.322;2024-02-16T13:05:02;8.73;;;5.47;;
62903;SDS011;49000;50.698;13.322;2024-02-16T13:07:28;8.67;;;5.60;;
62903;SDS011;49000;50.698;13.322;2024-02-16T13:09:53;6.30;;;4.80;;
62903;SDS011;49000;50.698;13.322;2024-02-16T13:12:19;6.13;;;4.87;;
62903;SDS011;49000;50.698;13.322;2024-02-16T13:14:47;6.47;;;4.73;;
62903;SDS011;49000;50.698;13.322;2024-02-16T13:17:13;7.13;;;4.80;;
62903;SDS011;49000;50.698;13.322;2024-02-16T13:19:38;7.27;;;5.03;;
62903;SDS011;49000;50.698;13.322;2024-02-16T13:22:04;7.03;;;4.93;;
62903;SDS011;49000;50.698;13.322;2024-02-16T13:24:29;7.17;;;5.40;;
62903;SDS011;49000;50.698;13.322;2024-02-16T13:26:55;6.67;;;5.63;;
62903;SDS011;49000;50.698;13.322;2024-02-16T13:29:21;7.97;;;6.23;;
62903;SDS011;49000;50.698;13.322;2024-02-16T13:31:46;7.10;;;5.57;;
62903;SDS011;49000;50.698;13.322;2024-02-16T13:34:12;8.63;;;6.37;;
62903;SDS011;49000;50.698;13.322;2024-02-16T13:36:39;7.67;;;6.17;;
62903;SDS011;49000;50.698;13.322;2024-02-16T13:39:06;7.83;;;6.27;;
62903;SDS011;49000;50.698;13.322;2024-02-16T13:41:31;7.37;;;6.07;;
62903;SDS011;49000;50.698;13.322;2024-02-16T13:43:58;8.10;;;6.33;;
62903;SDS011;49000;50.698;13.322;2024-02-16T13:46:23;9.33;;;6.50;;
62903;SDS011;49000;50.698;13.322;2024-02-16T13:48:49;7.60;;;6.20;;
62903;SDS011;49000;50.698;13.322;2024-02-16T13:51:14;11.40;;;7.00;;
62903;SDS011;49000;50.698;13.322;2024-02-16T13:53:40;8.67;;;6.60;;
62903;SDS011;49000;50.698;13.322;2024-02-16T13:56:05;9.67;;;6.40;;
62903;SDS011;49000;50.698;13.322;2024-02-16T13:58:31;9.13;;;6.67;;
62903;SDS011;49000;50.698;13.322;2024-02-16T14:00:59;8.27;;;6.80;;
62903;SDS011;49000;50.698;13.322;2024-02-16T14:03:25;9.43;;;7.23;;
62903;SDS011;49000;50.698;13.322;2024-02-16T14:05:51;9.47;;;6.97;;
62903;SDS011;49000;50.698;13.322;2024-02-16T14:08:17;8.87;;;6.60;;
62903;SDS011;49000;50.698;13.322;2024-02-16T14:10:42;7.93;;;6.50;;
62903;SDS011;49000;50.698;13.322;2024-02-16T14:13:08;9.30;;;6.90;;
62903;SDS011;49000;50.698;13.322;2024-02-16T14:15:34;9.03;;;7.47;;
62903;SDS011;49000;50.698;13.322;2024-02-16T14:18:00;8.93;;;6.70;;
62903;SDS011;49000;50.698;13.322;2024-02-16T14:20:25;8.70;;;7.13;;
62903;SDS011;49000;50.698;13.322;2024-02-16T14:22:51;9.63;;;7.50;;
62903;SDS011;49000;50.698;13.322;2024-02-16T14:25:16;8.43;;;6.70;;